Time;durP1;ratioP1;P1;durP2;ratioP2;P2;SDS_P1;SDS_P2;PMS_P1;PMS_P2;Temp;Humidity;BMP_temperature;BMP_pressure;BME280_temperature;BME280_humidity;BME280_pressure;Samples;Min_cycle;Max_cycle;Signal;HPM_P1;HPM_P2
2021/08/20 00:00:46;;;;;;;18.87;7.40;;;;;;;15.68;68.95;100416.44;126289;1099;104152;-80
2021/08/20 00:03:16;;;;;;;14.93;6.90;;;;;;;15.66;69.22;100422.56;126352;1099;104227;-80
2021/08/20 00:05:47;;;;;;;20.97;7.70;;;;;;;15.62;68.96;100416.36;126247;1099;104252;-80
2021/08/20 00:08:18;;;;;;;16.70;6.77;;;;;;;15.59;69.64;100430.41;126296;1099;104148;-81
2021/08/20 00:10:50;;;;;;;14.50;6.83;;;;;;;15.58;69.03;100422.46;126296;1099;104149;-79
2021/08/20 00:13:23;;;;;;;19.53;7.43;;;;;;;15.54;69.94;100425.95;126351;1098;104139;-78
2021/08/20 00:15:56;;;;;;;17.03;7.37;;;;;;;15.51;69.68;100428.55;126285;1099;104134;-80
2021/08/20 00:18:27;;;;;;;18.20;7.15;;;;;;;15.48;69.18;100429.38;126323;1099;104242;-79
2021/08/20 00:20:58;;;;;;;15.77;6.87;;;;;;;15.47;70.42;100432.88;126320;1098;104290;-80
2021/08/20 00:23:29;;;;;;;17.10;7.13;;;;;;;15.45;70.35;100430.22;126300;1099;104230;-80
2021/08/20 00:26:01;;;;;;;15.60;7.13;;;;;;;15.46;69.91;100433.77;126242;1099;104176;-79
2021/08/20 00:28:32;;;;;;;13.07;6.30;;;;;;;15.43;69.79;100429.31;126336;1099;104211;-79
2021/08/20 00:31:03;;;;;;;17.00;7.37;;;;;;;15.42;70.36;100427.52;126254;1098;104884;-79
2021/08/20 00:33:36;;;;;;;21.30;7.37;;;;;;;15.43;70.16;100425.79;126315;1099;104274;-80
2021/08/20 00:36:07;;;;;;;13.63;6.87;;;;;;;15.42;69.78;100427.52;126267;1099;105302;-80
2021/08/20 00:38:38;;;;;;;15.53;7.03;;;;;;;15.41;70.75;100420.48;126313;1099;104645;-79
2021/08/20 00:41:14;;;;;;;16.43;6.70;;;;;;;15.39;69.76;100423.95;126340;1099;104146;-80
2021/08/20 00:43:48;;;;;;;17.03;6.50;;;;;;;15.38;69.73;100419.53;125263;1099;104166;-80
2021/08/20 00:46:22;;;;;;;15.85;6.95;;;;;;;15.40;70.81;100428.39;125188;1099;104258;-80
2021/08/20 00:48:53;;;;;;;16.10;7.00;;;;;;;15.38;70.64;100425.72;125351;1099;104303;-80
2021/08/20 00:51:27;;;;;;;16.17;6.70;;;;;;;15.39;69.91;100424.84;125256;1099;104137;-79
2021/08/20 00:53:58;;;;;;;17.10;7.03;;;;;;;15.38;69.91;100428.37;125314;1099;104229;-79
2021/08/20 00:56:29;;;;;;;16.73;7.10;;;;;;;15.37;70.96;100434.52;125265;1099;104207;-80
2021/08/20 00:59:02;;;;;;;16.90;7.23;;;;;;;15.36;71.39;100432.72;125259;1099;104175;-79
2021/08/20 01:01:34;;;;;;;15.43;7.22;;;;;;;15.35;70.03;100428.32;125319;1099;104150;-80
2021/08/20 01:04:05;;;;;;;17.07;7.23;;;;;;;15.35;70.67;100430.97;125313;1099;104309;-80
2021/08/20 01:06:38;;;;;;;16.67;7.13;;;;;;;15.33;70.33;100422.09;125275;1099;105700;-80
2021/08/20 01:09:09;;;;;;;15.20;6.80;;;;;;;15.32;70.36;100430.92;125233;1099;104322;-80
2021/08/20 01:11:41;;;;;;;17.60;7.70;;;;;;;15.32;70.36;100424.72;125242;1099;104232;-79
2021/08/20 01:14:16;;;;;;;16.80;7.10;;;;;;;15.32;70.66;100416.79;125308;1102;104149;-80
2021/08/20 01:16:47;;;;;;;12.87;6.37;;;;;;;15.31;70.72;100422.97;126275;1099;104149;-79
2021/08/20 01:19:18;;;;;;;15.27;7.10;;;;;;;15.29;70.59;100420.30;126367;1099;104268;-80
2021/08/20 01:21:50;;;;;;;15.90;7.07;;;;;;;15.29;70.56;100428.23;126303;1099;104331;-80
2021/08/20 01:24:22;;;;;;;15.20;7.10;;;;;;;15.27;71.69;100416.75;126291;1099;104393;-79
2021/08/20 01:26:53;;;;;;;18.93;7.53;;;;;;;15.27;70.92;100414.98;126281;1099;104143;-80
2021/08/20 01:29:24;;;;;;;15.23;6.53;;;;;;;15.27;71.42;100420.27;126364;1098;104189;-80
2021/08/20 01:31:55;;;;;;;14.40;6.37;;;;;;;15.28;71.46;100422.03;126338;1099;104194;-79
2021/08/20 01:34:26;;;;;;;15.17;6.50;;;;;;;15.28;71.51;100415.86;126306;1099;104246;-79
2021/08/20 01:36:58;;;;;;;14.83;6.57;;;;;;;15.30;71.75;100416.77;126269;1099;104207;-79
2021/08/20 01:39:29;;;;;;;17.17;7.87;;;;;;;15.30;72.06;100419.41;126281;1099;104201;-79
2021/08/20 01:41:59;;;;;;;13.57;6.23;;;;;;;15.29;71.96;100409.72;126295;1099;104210;-80
2021/08/20 01:44:30;;;;;;;15.93;6.63;;;;;;;15.29;71.72;100412.37;126328;1099;104149;-79
2021/08/20 01:47:00;;;;;;;18.67;7.13;;;;;;;15.30;71.41;100414.13;126337;1099;104179;-81
2021/08/20 01:49:31;;;;;;;17.40;6.97;;;;;;;15.31;71.30;100423.84;126295;1099;104240;-80
2021/08/20 01:52:06;;;;;;;17.07;6.73;;;;;;;15.29;71.20;100412.37;126358;1098;104239;-80
2021/08/20 01:54:37;;;;;;;16.37;7.23;;;;;;;15.27;71.81;100420.27;126309;1099;104142;-80
2021/08/20 01:57:09;;;;;;;17.83;7.13;;;;;;;15.24;71.13;100421.98;126368;1099;104242;-80
2021/08/20 01:59:42;;;;;;;19.77;7.30;;;;;;;15.22;71.49;100424.61;126374;1099;104152;-80
2021/08/20 02:02:12;;;;;;;16.20;7.17;;;;;;;15.21;71.83;100416.66;126269;1099;104178;-80
2021/08/20 02:04:43;;;;;;;15.57;7.07;;;;;;;15.21;70.91;100424.59;126348;1099;104227;-80
2021/08/20 02:07:13;;;;;;;15.37;6.67;;;;;;;15.22;71.87;100421.05;126312;1099;104216;-79
2021/08/20 02:09:47;;;;;;;17.13;7.17;;;;;;;15.19;72.30;100418.36;126331;1098;104172;-79
2021/08/20 02:12:18;;;;;;;14.67;6.67;;;;;;;15.18;71.35;100416.61;126335;1099;104143;-80
2021/08/20 02:14:58;;;;;;;16.90;7.10;;;;;;;15.15;72.40;100412.16;126243;1099;104242;-80
2021/08/20 02:17:30;;;;;;;14.97;6.27;;;;;;;15.15;71.64;100416.56;126309;1099;104261;-80
2021/08/20 02:20:01;;;;;;;18.40;7.70;;;;;;;15.12;71.90;100417.39;126237;1099;110654;-79
2021/08/20 02:22:31;;;;;;;14.33;6.90;;;;;;;15.10;72.48;100417.36;126336;1099;104152;-80
2021/08/20 02:25:03;;;;;;;17.33;6.80;;;;;;;15.06;72.45;100412.88;126341;1099;104156;-80
2021/08/20 02:27:33;;;;;;;19.90;7.53;;;;;;;15.06;72.04;100418.17;126300;1099;104149;-80
2021/08/20 02:30:05;;;;;;;17.97;7.20;;;;;;;15.04;72.19;100419.03;126281;1099;104184;-79
2021/08/20 02:32:42;;;;;;;16.70;7.60;;;;;;;15.01;72.81;100422.50;125257;1099;104255;-79
2021/08/20 02:35:13;;;;;;;16.17;7.27;;;;;;;14.99;72.76;100424.23;125255;1102;104377;-80
2021/08/20 02:37:44;;;;;;;16.57;7.80;;;;;;;14.97;72.71;100428.59;125342;1099;104168;-81
2021/08/20 02:40:15;;;;;;;16.97;7.43;;;;;;;14.96;73.10;100434.76;125254;1099;104146;-81
2021/08/20 02:42:51;;;;;;;17.53;7.33;;;;;;;14.92;72.09;100436.44;125308;1102;104704;-80
2021/08/20 02:45:23;;;;;;;17.80;7.80;;;;;;;14.92;72.16;100439.08;125289;1099;104287;-80
2021/08/20 02:47:59;;;;;;;18.00;7.30;;;;;;;14.91;72.86;100436.41;125270;1099;104161;-80
2021/08/20 02:50:30;;;;;;;15.67;7.00;;;;;;;14.90;73.29;100437.30;125393;1100;104417;-79
2021/08/20 02:53:02;;;;;;;16.43;7.13;;;;;;;14.88;72.77;100429.34;126232;1099;104338;-81
2021/08/20 02:55:35;;;;;;;16.20;7.23;;;;;;;14.88;73.02;100434.63;126307;1099;104669;-81
2021/08/20 02:58:06;;;;;;;13.20;6.73;;;;;;;14.87;73.30;100439.88;126351;1099;104155;-80
2021/08/20 03:00:40;;;;;;;16.20;6.70;;;;;;;14.86;72.81;100441.61;126325;1099;104214;-81
2021/08/20 03:03:11;;;;;;;16.10;6.90;;;;;;;14.84;72.25;100443.34;126328;1099;104156;-81
2021/08/20 03:05:42;;;;;;;17.90;6.83;;;;;;;14.83;72.81;100435.40;126313;1099;104297;-80
2021/08/20 03:08:12;;;;;;;16.90;6.97;;;;;;;14.82;72.90;100444.17;126313;1099;104149;-80
2021/08/20 03:10:44;;;;;;;15.20;6.80;;;;;;;14.83;73.17;100440.68;126270;1099;104219;-80
2021/08/20 03:13:15;;;;;;;15.10;6.70;;;;;;;14.84;73.24;100437.19;126345;1099;104166;-81
2021/08/20 03:15:48;;;;;;;14.55;6.87;;;;;;;14.83;72.14;100435.40;126232;1099;104178;-81
2021/08/20 03:18:18;;;;;;;17.03;6.80;;;;;;;14.83;72.71;100436.27;126292;1099;104322;-80
2021/08/20 03:20:49;;;;;;;15.90;6.97;;;;;;;14.85;72.46;100441.59;126302;1099;104274;-81
2021/08/20 03:23:29;;;;;;;15.90;7.27;;;;;;;14.86;72.36;100448.66;126269;1099;104136;-80
2021/08/20 03:26:01;;;;;;;19.30;7.37;;;;;;;14.87;73.29;100446.05;126389;1099;104191;-80
2021/08/20 03:28:31;;;;;;;14.87;6.87;;;;;;;14.89;72.26;100448.71;126308;1099;104234;-79
2021/08/20 03:31:04;;;;;;;17.93;6.87;;;;;;;14.89;72.50;100456.64;126207;1099;104205;-79
2021/08/20 03:33:37;;;;;;;18.17;7.00;;;;;;;14.87;72.70;100453.97;126330;1099;104181;-80
2021/08/20 03:36:16;;;;;;;16.20;7.20;;;;;;;14.87;73.15;100453.97;126322;1099;104226;-80
2021/08/20 03:38:50;;;;;;;18.17;7.37;;;;;;;14.87;73.63;100453.97;126332;1099;104160;-81
2021/08/20 03:41:22;;;;;;;22.67;8.13;;;;;;;14.88;73.24;100457.48;126284;1099;104210;-80
2021/08/20 03:44:03;;;;;;;;;;;;;;;14.87;73.22;100461.02;126356;1098;104195;-80
2021/08/20 03:46:38;;;;;;;18.07;7.90;;;;;;;14.89;73.63;100472.48;126378;1099;104197;-81
2021/08/20 03:49:09;;;;;;;16.00;7.90;;;;;;;14.89;73.58;100470.73;126337;1099;104165;-81
2021/08/20 03:51:41;;;;;;;17.43;6.97;;;;;;;14.93;73.74;100471.69;126180;1099;104227;-81
2021/08/20 03:54:23;;;;;;;18.33;8.17;;;;;;;14.95;72.98;100472.59;126318;1099;104334;-80
2021/08/20 03:56:55;;;;;;;14.80;7.25;;;;;;;15.00;73.51;100467.39;126311;1099;104159;-81
2021/08/20 03:59:26;;;;;;;17.60;7.70;;;;;;;15.03;73.66;100476.25;126335;1099;104249;-80
2021/08/20 04:02:05;;;;;;;17.43;7.10;;;;;;;15.06;73.69;100481.59;126271;1099;112069;-80
2021/08/20 04:04:36;;;;;;;15.60;7.10;;;;;;;15.10;73.03;100474.63;126354;1099;104140;-80
2021/08/20 04:07:19;;;;;;;18.90;7.67;;;;;;;15.13;73.71;100482.61;126278;1098;104147;-80
2021/08/20 04:10:00;;;;;;;14.97;7.13;;;;;;;15.17;72.77;100478.25;126198;1099;104399;-80
2021/08/20 04:12:51;;;;;;;15.53;7.37;;;;;;;15.21;72.88;100485.38;126257;1099;104516;-80
2021/08/20 04:15:31;;;;;;;17.50;7.40;;;;;;;15.25;72.63;100477.52;126226;1099;104239;-81
2021/08/20 04:18:03;;;;;;;14.87;6.83;;;;;;;15.30;72.57;100490.78;126350;1099;104211;-82
2021/08/20 04:20:34;;;;;;;15.03;7.07;;;;;;;15.35;72.84;100489.13;126303;1097;104198;-79
2021/08/20 04:23:06;;;;;;;17.63;7.27;;;;;;;15.39;72.79;100490.05;126300;1099;108444;-81
2021/08/20 04:25:37;;;;;;;17.27;7.17;;;;;;;15.44;72.61;100483.08;126340;1099;104210;-80
2021/08/20 04:28:28;;;;;;;18.73;7.93;;;;;;;15.49;72.48;100491.99;126317;1098;104140;-81
2021/08/20 04:31:10;;;;;;;17.07;7.83;;;;;;;15.55;73.14;100492.09;126244;1099;104133;-79
2021/08/20 04:33:52;;;;;;;16.83;7.93;;;;;;;15.60;72.61;100492.16;126296;1098;104165;-81
2021/08/20 04:36:35;;;;;;;20.93;7.20;;;;;;;15.66;72.42;100497.54;126241;1099;104150;-78
2021/08/20 04:39:25;;;;;;;17.20;7.80;;;;;;;15.73;72.94;100501.16;126329;1099;104283;-79
2021/08/20 04:42:14;;;;;;;19.10;7.73;;;;;;;15.77;72.11;100501.26;126266;1098;104201;-79
2021/08/20 04:44:56;;;;;;;16.77;7.77;;;;;;;15.80;73.08;100503.95;126333;1099;104213;-79
2021/08/20 04:47:45;;;;;;;18.67;7.33;;;;;;;15.87;73.01;100493.45;126175;1099;104223;-79
2021/08/20 04:50:39;;;;;;;18.83;7.40;;;;;;;15.92;72.36;100491.75;126277;1099;104153;-79
2021/08/20 04:53:28;;;;;;;20.03;7.73;;;;;;;16.00;72.42;100495.38;126238;1099;104213;-80
2021/08/20 04:56:15;;;;;;;17.40;8.27;;;;;;;16.08;72.50;100499.04;126259;1099;104165;-79
2021/08/20 04:58:47;;;;;;;16.43;7.47;;;;;;;16.14;72.18;100493.83;126268;1099;104172;-80
2021/08/20 05:01:19;;;;;;;20.77;8.03;;;;;;;16.22;72.79;100500.95;126222;1098;104139;-79
2021/08/20 05:03:52;;;;;;;18.20;8.20;;;;;;;16.29;72.39;100493.11;126242;1099;104155;-80
2021/08/20 05:06:24;;;;;;;19.00;7.83;;;;;;;16.35;72.41;100498.48;126215;1099;104166;-79
2021/08/20 05:08:54;;;;;;;16.40;7.83;;;;;;;16.40;72.00;100490.59;126279;1099;104143;-80
2021/08/20 05:11:25;;;;;;;18.97;7.57;;;;;;;16.46;71.81;100497.73;126269;1099;104143;-80
2021/08/20 05:13:55;;;;;;;18.07;7.33;;;;;;;16.48;71.61;100494.20;126148;1099;120030;-78
2021/08/20 05:16:26;;;;;;;15.33;6.80;;;;;;;16.53;72.20;100496.91;126237;1099;104290;-79
2021/08/20 05:18:58;;;;;;;18.57;7.20;;;;;;;16.59;71.57;100493.45;126317;1099;104249;-78
2021/08/20 05:21:28;;;;;;;20.87;7.77;;;;;;;16.64;71.45;100499.68;126263;1099;104142;-78
2021/08/20 05:23:59;;;;;;;17.20;7.30;;;;;;;16.71;71.67;100496.23;126282;1099;104137;-81
2021/08/20 05:26:30;;;;;;;19.87;7.77;;;;;;;16.78;71.64;100507.78;126255;1099;104194;-78
2021/08/20 05:29:01;;;;;;;21.83;8.07;;;;;;;16.85;71.62;100510.51;126203;1099;104313;-78
2021/08/20 05:31:33;;;;;;;19.83;7.80;;;;;;;16.93;71.36;100501.79;126121;1099;104178;-78
2021/08/20 05:34:07;;;;;;;15.72;7.30;;;;;;;16.99;70.85;100509.80;126269;1099;104274;-77
2021/08/20 05:36:44;;;;;;;17.00;7.73;;;;;;;17.05;71.04;100507.21;126154;1099;104207;-77
2021/08/20 05:39:37;;;;;;;19.83;8.00;;;;;;;17.12;71.22;100502.84;126188;1099;104229;-77
2021/08/20 05:42:09;;;;;;;15.33;7.13;;;;;;;17.19;70.52;100510.87;126074;1099;104301;-75
2021/08/20 05:44:41;;;;;;;19.20;8.10;;;;;;;17.25;70.72;100505.62;126114;1099;104144;-76
2021/08/20 05:47:12;;;;;;;23.60;7.80;;;;;;;17.31;70.39;100501.23;126230;1099;104820;-77
2021/08/20 05:49:46;;;;;;;15.43;7.23;;;;;;;17.38;70.49;100505.72;126115;1099;104271;-75
2021/08/20 05:52:18;;;;;;;20.37;7.77;;;;;;;17.47;70.46;100500.48;126069;1099;104223;-77
2021/08/20 05:54:55;;;;;;;19.60;7.70;;;;;;;17.55;70.05;100501.42;126131;1099;108143;-76
2021/08/20 05:57:29;;;;;;;18.47;7.30;;;;;;;17.64;70.10;100502.36;126332;1099;104175;-77
2021/08/20 06:00:00;;;;;;;19.53;7.10;;;;;;;17.72;69.75;100503.31;126219;1099;104236;-76
2021/08/20 06:02:31;;;;;;;20.20;7.40;;;;;;;17.79;69.56;100505.11;126042;1099;104190;-77
2021/08/20 06:05:04;;;;;;;21.13;7.40;;;;;;;17.88;69.46;100509.59;126154;1099;104143;-77
2021/08/20 06:07:36;;;;;;;17.20;7.33;;;;;;;17.95;68.96;100507.02;126215;1099;104147;-78
2021/08/20 06:10:09;;;;;;;15.50;7.00;;;;;;;18.04;69.56;100502.63;126251;1099;104227;-77
2021/08/20 06:12:41;;;;;;;19.30;6.73;;;;;;;18.10;69.21;100507.97;126185;1099;104173;-75
2021/08/20 06:15:16;;;;;;;14.10;6.50;;;;;;;18.17;68.84;100504.48;126144;1099;104254;-76
2021/08/20 06:17:47;;;;;;;;;;;;;;;18.24;68.80;100511.58;126205;1099;104133;-75
2021/08/20 06:20:19;;;;;;;20.23;7.07;;;;;;;18.30;69.29;100498.33;126264;1097;104143;-77
2021/08/20 06:22:51;;;;;;;13.77;6.63;;;;;;;18.39;68.54;100509.89;126117;1099;104162;-77
2021/08/20 06:25:26;;;;;;;16.00;6.20;;;;;;;18.48;68.51;100520.52;126005;1098;105311;-77
2021/08/20 06:28:01;;;;;;;13.77;6.00;;;;;;;18.58;68.53;100514.36;126266;1099;104213;-79
2021/08/20 06:30:34;;;;;;;14.93;6.43;;;;;;;18.69;67.68;100509.95;126230;1099;104176;-77
2021/08/20 06:33:05;;;;;;;14.70;6.80;;;;;;;18.80;67.78;100517.09;126122;1099;104463;-77
2021/08/20 06:35:36;;;;;;;13.33;6.10;;;;;;;18.90;68.49;100518.92;126195;1098;104210;-76
2021/08/20 06:38:09;;;;;;;14.80;6.40;;;;;;;19.03;67.79;100519.83;126209;1099;104258;-76
2021/08/20 06:40:43;;;;;;;12.30;6.17;;;;;;;19.11;67.28;100518.05;126201;1099;104149;-76
2021/08/20 06:43:14;;;;;;;14.60;6.45;;;;;;;19.18;67.77;100501.22;126179;1099;104213;-75
2021/08/20 06:45:47;;;;;;;13.77;6.20;;;;;;;19.29;67.40;100506.55;126104;1099;104166;-77
2021/08/20 06:48:23;;;;;;;14.03;6.07;;;;;;;19.40;67.32;100504.77;126074;1099;104243;-76
2021/08/20 06:50:57;;;;;;;14.67;6.50;;;;;;;19.52;67.14;100500.30;125997;1099;104264;-77
2021/08/20 06:53:31;;;;;;;12.63;6.03;;;;;;;19.66;66.39;100501.16;126089;1099;104201;-76
2021/08/20 06:56:09;;;;;;;14.10;6.30;;;;;;;19.79;65.70;100498.52;126131;1100;118896;-78
2021/08/20 06:58:45;;;;;;;14.10;6.60;;;;;;;19.92;65.86;100495.83;126150;1099;104382;-77
2021/08/20 07:01:18;;;;;;;14.80;6.63;;;;;;;20.07;66.12;100500.23;126090;1099;104198;-77
2021/08/20 07:03:49;;;;;;;16.47;6.77;;;;;;;20.21;66.11;100497.52;125989;1099;104248;-77
2021/08/20 07:06:29;;;;;;;12.67;5.83;;;;;;;20.38;65.92;100494.78;126073;1099;104166;-75
2021/08/20 07:09:02;;;;;;;11.90;5.43;;;;;;;20.56;65.55;100491.12;125268;1099;104223;-77
2021/08/20 07:11:41;;;;;;;10.20;5.50;;;;;;;20.74;65.02;100492.84;126204;1098;104185;-76
2021/08/20 07:14:13;;;;;;;12.17;5.60;;;;;;;20.91;64.37;100494.49;126087;1099;104227;-76
2021/08/20 07:16:49;;;;;;;16.23;6.27;;;;;;;21.04;63.67;100497.98;126087;1099;110805;-75
2021/08/20 07:19:24;;;;;;;11.63;5.60;;;;;;;21.24;63.97;100485.36;125931;1099;104242;-77
2021/08/20 07:22:00;;;;;;;15.00;5.77;;;;;;;21.45;64.03;100486.94;126033;1098;104290;-77
2021/08/20 07:24:34;;;;;;;13.87;5.83;;;;;;;21.61;63.04;100489.49;126120;1099;104207;-76
2021/08/20 07:27:09;;;;;;;12.63;5.23;;;;;;;21.77;63.03;100484.87;126158;1099;104200;-76
2021/08/20 07:29:43;;;;;;;11.60;5.70;;;;;;;21.87;62.22;100483.89;125152;1099;104188;-75
2021/08/20 07:32:15;;;;;;;10.05;5.05;;;;;;;22.04;62.48;100499.73;125249;1102;104152;-75
2021/08/20 07:34:47;;;;;;;14.77;5.93;;;;;;;22.20;61.91;100487.93;125253;1102;104146;-74
2021/08/20 07:37:21;;;;;;;17.00;5.25;;;;;;;22.35;61.51;100486.03;125161;1099;104236;-76
2021/08/20 07:39:55;;;;;;;13.37;5.23;;;;;;;22.49;60.61;100484.05;125188;1099;104258;-75
2021/08/20 07:42:28;;;;;;;11.47;4.77;;;;;;;22.64;60.40;100490.98;125199;1098;104225;-75
2021/08/20 07:45:00;;;;;;;10.17;4.70;;;;;;;22.74;59.17;100491.72;125136;1102;104172;-75
2021/08/20 07:47:32;;;;;;;12.77;4.50;;;;;;;22.83;59.18;100482.66;125146;1102;104406;-74
2021/08/20 07:50:04;;;;;;;12.73;4.80;;;;;;;22.96;60.22;100493.15;125225;1102;104156;-75
2021/08/20 07:52:35;;;;;;;12.20;4.60;;;;;;;23.13;59.38;100492.05;125175;1102;104194;-75
2021/08/20 07:55:08;;;;;;;12.30;4.83;;;;;;;23.32;57.68;100485.45;125180;1102;104306;-76
2021/08/20 07:57:53;;;;;;;6.30;3.80;;;;;;;23.42;55.40;100479.94;125295;1102;104175;-76
2021/08/20 08:00:26;;;;;;;8.28;3.87;;;;;;;23.57;56.46;100479.67;125251;1102;104408;-77
2021/08/20 08:03:03;;;;;;;9.00;4.00;;;;;;;23.71;56.46;100489.26;126088;1099;104207;-76
2021/08/20 08:05:34;;;;;;;9.03;4.00;;;;;;;23.78;55.52;100478.40;125337;1099;104165;-77
2021/08/20 08:08:09;;;;;;;8.73;3.80;;;;;;;23.90;54.20;100482.65;125167;1102;110761;-77
2021/08/20 08:10:44;;;;;;;7.50;3.90;;;;;;;23.95;55.07;100478.11;125328;1102;104188;-77
2021/08/20 08:13:21;;;;;;;9.13;4.00;;;;;;;24.00;53.73;100476.20;125125;1099;104240;-76
2021/08/20 08:15:53;;;;;;;6.27;3.30;;;;;;;23.99;53.34;100477.11;125198;1100;104334;-77
2021/08/20 08:18:25;;;;;;;5.80;3.53;;;;;;;24.07;53.31;100484.13;126141;1099;104213;-76
2021/08/20 08:20:58;;;;;;;5.67;3.50;;;;;;;24.26;52.59;100480.13;126150;1099;104213;-75
2021/08/20 08:23:31;;;;;;;8.60;3.13;;;;;;;24.33;50.98;100475.54;126176;1099;104137;-76
2021/08/20 08:26:03;;;;;;;5.30;3.30;;;;;;;24.35;52.30;100481.74;126173;1099;104143;-75
2021/08/20 08:28:40;;;;;;;8.58;3.30;;;;;;;24.34;50.42;100488.91;126152;1099;104201;-76
2021/08/20 08:31:22;;;;;;;6.20;3.37;;;;;;;24.32;50.33;100477.31;126183;1099;104197;-75
2021/08/20 08:33:56;;;;;;;6.80;3.80;;;;;;;24.37;50.82;100478.13;125378;1099;104285;-76
2021/08/20 08:36:35;;;;;;;8.13;3.60;;;;;;;24.50;50.37;100477.86;126235;1099;104146;-76
2021/08/20 08:39:08;;;;;;;5.30;3.10;;;;;;;24.57;50.93;100477.72;126270;1099;104685;-76
2021/08/20 08:41:53;;;;;;;5.43;3.30;;;;;;;24.55;47.91;100478.63;126026;1099;104137;-75
2021/08/20 08:44:24;;;;;;;5.67;3.20;;;;;;;24.52;47.52;100471.52;126228;1099;104242;-76
2021/08/20 08:47:02;;;;;;;6.10;3.37;;;;;;;24.54;48.71;100471.48;126013;1099;104162;-76
2021/08/20 08:49:40;;;;;;;4.23;3.10;;;;;;;24.64;48.33;100486.50;126169;1099;104178;-75
2021/08/20 08:52:11;;;;;;;6.33;3.40;;;;;;;24.75;47.89;100462.98;125152;1099;104235;-76
2021/08/20 08:54:48;;;;;;;6.90;3.13;;;;;;;24.81;48.43;100469.11;125218;1100;104396;-75
2021/08/20 08:57:32;;;;;;;8.07;3.30;;;;;;;24.77;48.21;100462.95;125326;1099;104316;-78
2021/08/20 09:00:03;;;;;;;;;;;;;;;24.76;45.04;100472.80;125453;1099;104333;-75
2021/08/20 09:02:47;;;;;;;7.57;3.50;;;;;;;24.67;47.08;100464.97;126095;1099;104261;-75
2021/08/20 09:05:52;;;;;;;7.87;3.40;;;;;;;24.70;47.79;100466.71;125291;1099;104165;-76
2021/08/20 09:08:30;;;;;;;6.33;3.13;;;;;;;24.75;47.49;100459.42;125519;1099;104136;-75
2021/08/20 09:11:07;;;;;;;5.17;3.30;;;;;;;24.79;47.18;100463.78;125298;1099;104152;-76
2021/08/20 09:13:42;;;;;;;4.60;3.17;;;;;;;24.76;46.05;100467.44;125231;1102;104230;-75
2021/08/20 09:16:15;;;;;;;3.20;2.72;;;;;;;24.76;46.01;100472.80;125178;1102;104360;-76
2021/08/20 09:18:47;;;;;;;4.13;2.70;;;;;;;24.84;45.21;100463.67;125145;1102;104178;-76
2021/08/20 09:21:29;;;;;;;5.63;3.13;;;;;;;24.92;46.05;100462.58;125205;1102;104338;-77
2021/08/20 09:24:01;;;;;;;6.00;3.45;;;;;;;24.98;46.17;100461.56;125204;1099;104245;-77
2021/08/20 09:26:38;;;;;;;7.33;3.40;;;;;;;24.87;45.41;100466.28;125187;1099;104514;-77
2021/08/20 09:29:14;;;;;;;10.00;3.83;;;;;;;24.82;45.84;100463.70;125167;1099;104156;-78
2021/08/20 09:31:54;;;;;;;;;;;;;;;24.88;44.68;100454.64;125283;1098;104172;-79
2021/08/20 09:34:28;;;;;;;6.87;3.37;;;;;;;24.92;45.81;100461.70;125239;1099;104277;-78
2021/08/20 09:37:13;;;;;;;4.62;3.20;;;;;;;24.97;45.02;100456.23;125247;1100;104302;-77
2021/08/20 09:39:56;;;;;;;6.10;3.27;;;;;;;25.04;44.28;100453.36;125267;1099;104169;-78
2021/08/20 09:42:34;;;;;;;6.23;3.30;;;;;;;25.17;45.54;100448.55;125312;1102;104312;-77
2021/08/20 09:45:21;;;;;;;9.40;3.75;;;;;;;25.26;44.56;100453.69;125530;1099;104159;-78
2021/08/20 09:47:57;;;;;;;4.40;3.20;;;;;;;25.05;44.15;100471.20;125849;1099;104306;-78
2021/08/20 09:50:44;;;;;;;5.00;2.90;;;;;;;25.07;43.96;100460.43;126074;1099;104162;-79
2021/08/20 09:53:22;;;;;;;5.97;3.20;;;;;;;25.17;44.81;100463.79;126114;1098;104142;-78
2021/08/20 09:55:55;;;;;;;7.77;3.20;;;;;;;25.27;44.45;100459.93;126243;1099;104185;-77
2021/08/20 09:58:28;;;;;;;5.92;3.40;;;;;;;25.40;44.67;100465.89;126122;1099;104194;-77
2021/08/20 10:01:03;;;;;;;9.47;3.50;;;;;;;25.47;44.74;100463.00;125866;1099;104274;-76
2021/08/20 10:03:38;;;;;;;4.33;2.80;;;;;;;25.61;44.88;100456.39;125972;1099;104236;-77
2021/08/20 10:06:12;;;;;;;4.83;2.77;;;;;;;25.64;43.94;100459.86;125323;1099;104200;-77
2021/08/20 10:08:47;;;;;;;5.50;3.23;;;;;;;25.63;44.22;100459.91;125830;1099;104227;-78
2021/08/20 10:11:26;;;;;;;6.83;3.40;;;;;;;25.50;43.89;100461.17;126097;1099;104804;-78
2021/08/20 10:14:02;;;;;;;6.13;3.60;;;;;;;25.55;44.41;100452.05;126015;1099;104257;-78
2021/08/20 10:16:40;;;;;;;5.83;3.03;;;;;;;25.55;43.09;100475.36;126065;1099;104195;-79
2021/08/20 10:19:14;;;;;;;7.00;3.33;;;;;;;25.35;43.55;100455.27;125989;1099;104169;-79
2021/08/20 10:21:49;;;;;;;7.77;3.17;;;;;;;25.36;43.43;100451.67;125801;1099;102867;-79
2021/08/20 10:24:22;;;;;;;4.80;3.00;;;;;;;25.42;42.96;100446.13;126076;1099;101877;-79
2021/08/20 10:27:02;;;;;;;8.95;3.25;;;;;;;25.42;43.32;100453.32;126010;1099;104101;-79
2021/08/20 10:29:38;;;;;;;8.53;3.33;;;;;;;25.33;44.10;100457.12;126083;1099;104167;-78
2021/08/20 10:32:20;;;;;;;6.33;3.30;;;;;;;25.28;44.10;100449.19;126216;1099;105260;-80
2021/08/20 10:34:52;;;;;;;8.17;2.87;;;;;;;25.25;43.48;100451.04;125979;1099;104143;-80
2021/08/20 10:37:34;;;;;;;8.48;3.30;;;;;;;25.30;44.19;100462.56;126026;1099;104137;-81
2021/08/20 10:40:24;;;;;;;5.80;3.10;;;;;;;25.41;43.04;100456.92;125960;1099;104170;-79
2021/08/20 10:42:57;;;;;;;5.60;2.70;;;;;;;25.34;43.19;100453.52;125960;1099;104672;-79
2021/08/20 10:45:43;;;;;;;11.63;3.70;;;;;;;25.41;43.19;100454.23;126086;1099;104213;-79
2021/08/20 10:48:21;;;;;;;5.70;3.03;;;;;;;25.48;43.04;100437.91;126099;1099;104153;-78
2021/08/20 10:50:58;;;;;;;7.93;3.40;;;;;;;25.37;43.18;100450.76;126059;1099;104216;-79
2021/08/20 10:56:42;;;;;;;7.57;3.30;;;;;;;25.46;42.70;100455.89;126072;1099;104188;-78
2021/08/20 10:59:46;;;;;;;8.67;2.80;;;;;;;25.61;42.34;100448.33;126147;1098;104159;-80
2021/08/20 11:02:44;;;;;;;5.03;3.00;;;;;;;25.74;42.67;100446.17;126067;1099;104197;-78
2021/08/20 11:05:19;;;;;;;8.33;3.27;;;;;;;25.88;42.07;100445.78;125186;1102;104175;-78
2021/08/20 11:07:50;;;;;;;9.50;3.47;;;;;;;25.76;42.41;100441.66;125205;1102;104782;-77
2021/08/20 11:10:40;;;;;;;8.10;3.50;;;;;;;25.64;41.92;100443.73;125158;1102;104312;-77
2021/08/20 11:13:13;;;;;;;6.93;3.17;;;;;;;25.67;41.85;100439.23;125265;1102;104657;-77
2021/08/20 11:15:48;;;;;;;5.20;3.10;;;;;;;25.75;41.80;100439.89;125258;1102;104755;-77
2021/08/20 11:18:38;;;;;;;;;;;;;;;25.74;41.86;100432.73;125209;1102;104156;-76
2021/08/20 11:21:10;;;;;;;4.70;2.70;;;;;;;25.70;40.97;100442.70;125113;1102;104485;-77
2021/08/20 11:23:42;;;;;;;5.77;2.53;;;;;;;25.75;41.35;100443.45;125250;1102;104193;-76
2021/08/20 11:26:30;;;;;;;4.33;3.00;;;;;;;25.82;41.57;100434.30;125211;1100;104328;-75
2021/08/20 11:29:02;;;;;;;5.73;3.20;;;;;;;25.94;41.47;100434.86;125276;1099;104258;-75
2021/08/20 11:31:35;;;;;;;5.43;2.90;;;;;;;25.88;40.65;100435.03;125172;1099;104371;-75
2021/08/20 11:34:08;;;;;;;3.70;3.00;;;;;;;25.80;40.95;100433.47;125300;1099;104491;-76
2021/08/20 11:36:43;;;;;;;5.83;3.00;;;;;;;25.81;40.76;100427.14;125734;1099;104153;-76
2021/08/20 11:39:15;;;;;;;5.35;3.15;;;;;;;25.81;41.21;100429.84;126167;1099;104191;-76
2021/08/20 11:41:49;;;;;;;6.83;3.00;;;;;;;25.86;40.54;100434.20;125995;1099;104143;-76